Time,TemperatureF,DewpointF,PressureIn,WindDirection,WindDirectionDegrees,WindSpeedMPH,WindSpeedGustMPH,Humidity,HourlyPrecipIn,Conditions,Clouds,dailyrainin,SoftwareType,DateUTC
2013-03-20 07:28:00,52.2,19.1,30.21,East,90,6.9,0.0,27,0.00,CLR,,0.00,WeatherDisplay:10.37,2013-03-20 12:28:00,
2013-03-20 07:29:00,52.2,19.1,30.21,East,90,6.9,0.0,27,0.00,CLR,,0.00,WeatherDisplay:10.37,2013-03-20 12:29:00,
2013-03-20 07:34:00,52.0,19.8,30.21,East,90,6.9,0.0,28,0.00,OVC,,0.00,WeatherDisplay:10.37,2013-03-20 12:34:00,
2013-03-20 07:39:00,52.0,19.8,30.21,East,90,6.9,0.0,28,0.00,OVC,,0.00,WeatherDisplay:10.37,2013-03-20 12:39:00,
2013-03-20 07:44:00,52.0,21.5,30.21,East,90,6.9,0.0,30,0.00,OVC,,0.00,WeatherDisplay:10.37,2013-03-20 12:44:00,
2013-03-20 07:49:00,51.8,23.6,30.15,East,90,6.9,0.0,33,0.00,OVC,,0.00,WeatherDisplay:10.37,2013-03-20 12:49:00,
2013-03-20 07:54:00,51.8,24.3,30.15,East,90,6.9,0.0,34,0.00,OVC,,0.00,WeatherDisplay:10.37,2013-03-20 12:54:00,
2013-03-20 07:59:00,51.8,24.3,30.15,East,90,6.9,0.0,34,0.00,OVC,,0.00,WeatherDisplay:10.37,2013-03-20 12:59:00,
2013-03-20 08:04:00,51.8,24.3,30.18,East,90,6.9,0.0,34,0.00,OVC,,0.00,WeatherDisplay:10.37,2013-03-20 13:04:00,
2013-03-20 08:09:00,51.8,24.3,30.18,East,90,6.9,0.0,34,0.00,OVC,,0.00,WeatherDisplay:10.37,2013-03-20 13:09:00,
2013-03-20 08:14:00,51.8,24.3,30.18,East,90,6.9,0.0,34,0.00,OVC,,0.00,WeatherDisplay:10.37,2013-03-20 13:14:00,
2013-03-20 08:19:00,52.0,23.7,30.18,East,90,6.9,0.0,33,0.00,OVC,,0.00,WeatherDisplay:10.37,2013-03-20 13:19:00,
2013-03-20 08:24:00,52.2,23.9,30.18,East,90,6.9,0.0,33,0.00,OVC,,0.00,WeatherDisplay:10.37,2013-03-20 13:24:00,
2013-03-20 08:29:00,52.3,24.8,30.18,East,90,6.9,0.0,34,0.00,OVC,,0.00,WeatherDisplay:10.37,2013-03-20 13:29:00,
2013-03-20 08:34:00,52.2,24.6,30.21,East,90,6.9,0.0,34,0.00,OVC,,0.00,WeatherDisplay:10.37,2013-03-20 13:34:00,
2013-03-20 08:39:00,52.2,23.9,30.21,East,90,6.9,0.0,33,0.00,OVC,,0.00,WeatherDisplay:10.37,2013-03-20 13:39:00,
2013-03-20 08:44:00,52.2,23.9,30.21,East,90,6.9,0.0,33,0.00,OVC,,0.00,WeatherDisplay:10.37,2013-03-20 13:44:00,
2013-03-20 08:49:00,52.0,23.7,30.21,East,90,6.9,0.0,33,0.00,OVC,,0.00,WeatherDisplay:10.37,2013-03-20 13:49:00,
2013-03-20 08:55:00,52.0,24.4,30.21,East,90,6.9,0.0,34,0.00,OVC,,0.00,WeatherDisplay:10.37,2013-03-20 13:55:00,
2013-03-20 09:00:00,52.2,23.9,30.21,East,90,6.9,0.0,33,0.00,OVC,,0.00,WeatherDisplay:10.37,2013-03-20 14:00:00,
2013-03-20 09:05:00,52.2,24.6,30.21,East,90,6.9,0.0,34,0.00,OVC,,0.00,WeatherDisplay:10.37,2013-03-20 14:05:00,
2013-03-20 09:10:00,52.2,24.6,30.21,East,90,6.9,0.0,34,0.00,OVC,,0.00,WeatherDisplay:10.37,2013-03-20 14:10:00,
2013-03-20 09:15:00,52.3,24.8,30.21,East,90,6.9,0.0,34,0.00,BKN,,0.00,WeatherDisplay:10.37,2013-03-20 14:15:00,
2013-03-20 09:20:00,52.3,24.8,30.24,East,90,6.9,0.0,34,0.00,BKN,,0.00,WeatherDisplay:10.37,2013-03-20 14:20:00,
2013-03-20 09:25:00,52.3,24.8,30.24,East,90,6.9,0.0,34,0.00,BKN,,0.00,WeatherDisplay:10.37,2013-03-20 14:25:00,
2013-03-20 09:30:00,52.5,24.9,30.24,East,90,6.9,0.0,34,0.00,BKN,,0.00,WeatherDisplay:10.37,2013-03-20 14:30:00,
2013-03-20 09:35:00,52.5,24.2,30.24,East,90,6.9,0.0,33,0.00,BKN,,0.00,WeatherDisplay:10.37,2013-03-20 14:35:00,
2013-03-20 09:40:00,52.7,24.4,30.24,East,90,6.9,0.0,33,0.00,BKN,,0.00,WeatherDisplay:10.37,2013-03-20 14:40:00,
2013-03-20 09:45:00,53.4,24.3,30.24,East,90,6.9,0.0,32,0.00,BKN,,0.00,WeatherDisplay:10.37,2013-03-20 14:45:00,
2013-03-20 09:50:00,56.1,26.6,30.27,East,90,6.9,0.0,32,0.00,BKN,,0.00,WeatherDisplay:10.37,2013-03-20 14:50:00,
2013-03-20 09:55:00,56.7,24.7,30.27,East,90,6.9,0.0,29,0.00,BKN,,0.00,WeatherDisplay:10.37,2013-03-20 14:55:00,
2013-03-20 10:00:00,55.8,22.2,30.27,East,90,6.9,0.0,27,0.00,BKN,,0.00,WeatherDisplay:10.37,2013-03-20 15:00:00,
2013-03-20 10:05:00,54.7,21.3,30.27,East,90,6.9,0.0,27,0.00,BKN,,0.00,WeatherDisplay:10.37,2013-03-20 15:05:00,
2013-03-20 10:10:00,57.7,23.0,30.27,East,90,6.9,0.0,26,0.00,BKN,,0.00,WeatherDisplay:10.37,2013-03-20 15:10:00,
2013-03-20 10:15:00,59.2,23.3,30.27,East,90,6.9,0.0,25,0.00,CLR,,0.00,WeatherDisplay:10.37,2013-03-20 15:15:00,
2013-03-20 10:20:00,58.5,22.7,30.27,East,90,6.9,0.0,25,0.00,CLR,,0.00,WeatherDisplay:10.37,2013-03-20 15:20:00,
2013-03-20 10:25:00,59.0,22.2,30.27,East,90,6.9,0.0,24,0.00,CLR,,0.00,WeatherDisplay:10.37,2013-03-20 15:25:00,
2013-03-20 10:30:00,60.1,23.1,30.27,East,90,6.9,0.0,24,0.00,CLR,,0.00,WeatherDisplay:10.37,2013-03-20 15:30:00,
2013-03-20 10:35:00,61.2,20.9,30.21,East,90,6.9,0.0,21,0.00,CLR,,0.00,WeatherDisplay:10.37,2013-03-20 15:35:00,
2013-03-20 10:40:00,61.9,19.1,30.21,East,90,6.9,0.0,19,0.00,CLR,,0.00,WeatherDisplay:10.37,2013-03-20 15:40:00,
2013-03-20 10:45:00,61.5,18.8,30.21,East,90,6.9,0.0,19,0.00,CLR,,0.00,WeatherDisplay:10.37,2013-03-20 15:45:00,
2013-03-20 10:50:00,61.3,18.7,30.24,East,90,6.9,0.0,19,0.00,CLR,,0.00,WeatherDisplay:10.37,2013-03-20 15:50:00,
2013-03-20 10:55:00,62.4,19.6,30.24,East,90,6.9,0.0,19,0.00,CLR,,0.00,WeatherDisplay:10.37,2013-03-20 15:55:00,
2013-03-20 11:00:00,62.8,18.6,30.24,East,90,6.9,0.0,18,0.00,CLR,,0.00,WeatherDisplay:10.37,2013-03-20 16:00:00,
2013-03-20 11:05:00,63.5,16.4,30.24,East,90,6.9,0.0,16,0.00,CLR,,0.00,WeatherDisplay:10.37,2013-03-20 16:05:00,
2013-03-20 11:10:00,63.9,16.7,30.24,East,90,6.9,0.0,16,0.00,CLR,,0.00,WeatherDisplay:10.37,2013-03-20 16:10:00,
2013-03-20 11:15:00,64.4,15.7,30.24,East,90,6.9,0.0,15,0.00,CLR,,0.00,WeatherDisplay:10.37,2013-03-20 16:15:00,
2013-03-20 11:20:00,64.8,16.0,30.24,East,90,6.9,0.0,15,0.00,CLR,,0.00,WeatherDisplay:10.37,2013-03-20 16:20:00,
2013-03-20 11:25:00,65.1,16.3,30.24,East,90,6.9,0.0,15,0.00,CLR,,0.00,WeatherDisplay:10.37,2013-03-20 16:25:00,
2013-03-20 11:30:00,65.5,16.5,30.24,East,90,6.9,0.0,15,0.00,CLR,,0.00,WeatherDisplay:10.37,2013-03-20 16:30:00,
2013-03-20 11:35:00,65.3,16.4,30.21,East,90,6.9,0.0,15,0.00,CLR,,0.00,WeatherDisplay:10.37,2013-03-20 16:35:00,
2013-03-20 11:40:00,65.1,16.3,30.21,East,90,12.7,12.7,15,0.00,CLR,,0.00,WeatherDisplay:10.37,2013-03-20 16:40:00,
2013-03-20 11:45:00,65.5,16.5,30.21,East,90,12.7,12.7,15,0.00,CLR,,0.00,WeatherDisplay:10.37,2013-03-20 16:45:00,
2013-03-20 11:50:00,66.2,17.1,30.24,East,90,12.7,12.7,15,0.00,CLR,,0.00,WeatherDisplay:10.37,2013-03-20 16:50:00,
2013-03-20 11:55:00,66.2,17.1,30.24,East,90,12.7,12.7,15,0.00,CLR,,0.00,WeatherDisplay:10.37,2013-03-20 16:55:00,
2013-03-20 12:00:00,67.5,18.1,30.24,East,90,12.7,12.7,15,0.00,CLR,,0.00,WeatherDisplay:10.37,2013-03-20 17:00:00,
2013-03-20 12:05:00,68.9,19.3,30.24,East,90,12.7,12.7,15,0.00,CLR,,0.00,WeatherDisplay:10.37,2013-03-20 17:05:00,
2013-03-20 12:10:00,68.9,19.3,30.24,East,90,12.7,12.7,15,0.00,CLR,,0.00,WeatherDisplay:10.37,2013-03-20 17:10:00,
2013-03-20 12:15:00,69.4,19.7,30.24,East,90,12.7,12.7,15,0.00,CLR,,0.00,WeatherDisplay:10.37,2013-03-20 17:15:00,
2013-03-20 12:20:00,71.1,19.4,30.24,East,90,12.7,12.7,14,0.00,CLR,,0.00,WeatherDisplay:10.37,2013-03-20 17:20:00,
2013-03-20 12:25:00,72.0,20.1,30.24,East,90,12.7,12.7,14,0.00,CLR,,0.00,WeatherDisplay:10.37,2013-03-20 17:25:00,
2013-03-20 12:30:00,71.4,19.7,30.24,East,90,12.7,12.7,14,0.00,CLR,,0.00,WeatherDisplay:10.37,2013-03-20 17:30:00,
2013-03-20 12:35:00,72.0,20.1,30.21,East,90,12.7,12.7,14,0.00,CLR,,0.00,WeatherDisplay:10.37,2013-03-20 17:35:00,
2013-03-20 12:40:00,72.5,20.5,30.21,East,90,12.7,12.7,14,0.00,CLR,,0.00,WeatherDisplay:10.37,2013-03-20 17:40:00,
2013-03-20 12:46:00,73.2,21.1,30.21,East,90,12.7,12.7,14,0.00,CLR,,0.00,WeatherDisplay:10.37,2013-03-20 17:46:00,
2013-03-20 12:51:00,72.1,20.3,30.21,East,90,12.7,12.7,14,0.00,CLR,,0.00,WeatherDisplay:10.37,2013-03-20 17:51:00,
2013-03-20 12:56:00,72.3,20.4,30.21,East,90,12.7,12.7,14,0.00,CLR,,0.00,WeatherDisplay:10.37,2013-03-20 17:56:00,
2013-03-20 13:01:00,72.7,20.7,30.21,East,90,12.7,12.7,14,0.00,CLR,,0.00,WeatherDisplay:10.37,2013-03-20 18:01:00,
2013-03-20 13:06:00,72.5,20.5,30.21,East,90,12.7,12.7,14,0.00,CLR,,0.00,WeatherDisplay:10.37,2013-03-20 18:06:00,
2013-03-20 13:11:00,72.9,20.8,30.21,East,90,12.7,12.7,14,0.00,CLR,,0.00,WeatherDisplay:10.37,2013-03-20 18:11:00,
2013-03-20 13:16:00,73.6,19.7,30.21,ENE,68,12.7,12.7,13,0.00,CLR,,0.00,WeatherDisplay:10.37,2013-03-20 18:16:00,
2013-03-20 13:21:00,73.2,21.1,30.21,ENE,68,6.9,6.9,14,0.00,CLR,,0.00,WeatherDisplay:10.37,2013-03-20 18:21:00,
2013-03-20 13:26:00,74.3,20.2,30.21,ENE,68,6.9,6.9,13,0.00,CLR,,0.00,WeatherDisplay:10.37,2013-03-20 18:26:00,
2013-03-20 13:31:00,74.7,20.5,30.18,ENE,68,6.9,6.9,13,0.00,CLR,,0.00,WeatherDisplay:10.37,2013-03-20 18:31:00,
2013-03-20 13:36:00,75.2,20.9,30.18,ENE,68,6.9,6.9,13,0.00,CLR,,0.00,WeatherDisplay:10.37,2013-03-20 18:36:00,
2013-03-20 13:41:00,75.6,21.2,30.18,ENE,68,6.9,6.9,13,0.00,CLR,,0.00,WeatherDisplay:10.37,2013-03-20 18:41:00,
2013-03-20 13:46:00,75.0,20.8,30.15,NNE,22,10.4,10.4,13,0.00,CLR,,0.00,WeatherDisplay:10.37,2013-03-20 18:46:00,
2013-03-20 13:51:00,75.6,21.2,30.15,East,90,10.4,10.4,13,0.00,CLR,,0.00,WeatherDisplay:10.37,2013-03-20 18:51:00,
2013-03-20 13:56:00,75.4,21.1,30.15,ENE,68,9.2,9.2,13,0.00,CLR,,0.00,WeatherDisplay:10.37,2013-03-20 18:56:00,
2013-03-20 14:01:00,77.0,22.4,30.15,ENE,68,5.8,5.8,13,0.00,CLR,,0.00,WeatherDisplay:10.37,2013-03-20 19:01:00,
2013-03-20 14:07:00,76.8,22.2,30.15,NNE,22,9.2,9.2,13,0.00,CLR,,0.00,WeatherDisplay:10.37,2013-03-20 19:07:00,
2013-03-20 14:12:00,75.2,20.9,30.15,ENE,68,12.7,12.7,13,0.00,CLR,,0.00,WeatherDisplay:10.37,2013-03-20 19:12:00,
2013-03-20 14:17:00,76.8,22.2,30.15,ENE,68,8.1,8.1,13,0.00,CLR,,0.00,WeatherDisplay:10.37,2013-03-20 19:17:00,
2013-03-20 14:22:00,77.2,22.5,30.15,East,90,11.8,11.8,13,0.00,CLR,,0.00,WeatherDisplay:10.37,2013-03-20 19:22:00,
2013-03-20 14:27:00,77.0,22.4,30.15,NE,45,8.1,8.1,13,0.00,CLR,,0.00,WeatherDisplay:10.37,2013-03-20 19:27:00,
2013-03-20 14:32:00,76.8,22.2,30.15,NNE,22,8.1,8.1,13,0.00,CLR,,0.00,WeatherDisplay:10.37,2013-03-20 19:32:00,
2013-03-20 14:37:00,76.8,22.2,30.15,East,90,10.4,10.4,13,0.00,CLR,,0.00,WeatherDisplay:10.37,2013-03-20 19:37:00,
2013-03-20 14:42:00,78.3,23.3,30.15,East,90,5.8,6.2,13,0.00,CLR,,0.00,WeatherDisplay:10.37,2013-03-20 19:42:00,
2013-03-20 14:47:00,77.5,22.8,30.12,ENE,68,11.5,11.5,13,0.00,CLR,,0.00,WeatherDisplay:10.37,2013-03-20 19:47:00,
2013-03-20 14:52:00,78.4,23.5,30.12,North,0,5.8,5.8,13,0.00,CLR,,0.00,WeatherDisplay:10.37,2013-03-20 19:52:00,
2013-03-20 14:57:00,77.5,22.8,30.12,NE,45,8.1,8.1,13,0.00,CLR,,0.00,WeatherDisplay:10.37,2013-03-20 19:57:00,
2013-03-20 15:02:00,77.4,22.6,30.15,ESE,112,8.1,8.1,13,0.00,CLR,,0.00,WeatherDisplay:10.37,2013-03-20 20:02:00,
2013-03-20 15:07:00,78.4,23.5,30.15,ENE,68,12.7,12.7,13,0.00,CLR,,0.00,WeatherDisplay:10.37,2013-03-20 20:07:00,
2013-03-20 15:12:00,79.2,22.1,30.15,NE,45,8.1,8.1,12,0.00,CLR,,0.00,WeatherDisplay:10.37,2013-03-20 20:12:00,
2013-03-20 15:17:00,78.3,23.3,30.12,SW,225,11.5,11.5,13,0.00,CLR,,0.00,WeatherDisplay:10.37,2013-03-20 20:17:00,
2013-03-20 15:20:00,47.3,12.3,30.06,ESE,104,3.0,7.0,24,0.00,CLR,,0.00,WeatherDisplay:10.37,2013-03-20 20:20:00,
2013-03-20 15:22:00,78.6,23.6,30.12,NNE,22,3.5,3.6,13,0.00,CLR,,0.00,WeatherDisplay:10.37,2013-03-20 20:22:00,
2013-03-20 15:25:00,47.3,12.3,30.06,East,94,0.0,7.0,24,0.00,CLR,,0.00,WeatherDisplay:10.37,2013-03-20 20:25:00,
2013-03-20 15:27:00,78.1,23.2,30.12,SE,135,10.4,10.4,13,0.00,CLR,,0.00,WeatherDisplay:10.37,2013-03-20 20:27:00,
2013-03-20 15:30:00,47.3,12.3,30.06,ESE,117,0.0,0.0,24,0.00,CLR,,0.00,WeatherDisplay:10.37,2013-03-20 20:30:00,
2013-03-20 15:32:00,77.0,22.4,30.09,SSE,158,12.7,12.7,13,0.00,CLR,,0.00,WeatherDisplay:10.37,2013-03-20 20:32:00,
2013-03-20 15:35:00,47.3,12.3,30.06,SSE,158,0.0,0.0,24,0.00,CLR,,0.00,WeatherDisplay:10.37,2013-03-20 20:35:00,
2013-03-20 15:37:00,77.9,23.1,30.09,NE,45,10.4,10.4,13,0.00,CLR,,0.00,WeatherDisplay:10.37,2013-03-20 20:37:00,
2013-03-20 15:40:00,47.3,12.3,30.06,SE,140,0.0,0.0,24,0.00,CLR,,0.00,WeatherDisplay:10.37,2013-03-20 20:40:00,
2013-03-20 15:42:00,79.0,22.0,30.09,NE,45,9.2,9.2,12,0.00,CLR,,0.00,WeatherDisplay:10.37,2013-03-20 20:42:00,
2013-03-20 15:45:00,47.3,12.3,30.06,SE,143,0.0,0.0,24,0.00,CLR,,0.00,WeatherDisplay:10.37,2013-03-20 20:45:00,
2013-03-20 15:47:00,78.4,23.5,30.09,ENE,68,8.1,8.1,13,0.00,CLR,,0.00,WeatherDisplay:10.37,2013-03-20 20:47:00,
2013-03-20 15:50:00,47.3,12.3,30.06,South,174,0.0,0.0,24,0.00,CLR,,0.00,WeatherDisplay:10.37,2013-03-20 20:50:00,
2013-03-20 15:52:00,78.3,23.3,30.09,ENE,68,8.1,8.1,13,0.00,CLR,,0.00,WeatherDisplay:10.37,2013-03-20 20:52:00,
2013-03-20 15:55:00,47.3,12.3,30.06,South,180,0.0,0.0,24,0.00,CLR,,0.00,WeatherDisplay:10.37,2013-03-20 20:55:00,
2013-03-20 15:57:00,78.6,23.6,30.09,ESE,112,2.3,4.3,13,0.00,CLR,,0.00,WeatherDisplay:10.37,2013-03-20 20:57:00,
2013-03-20 16:00:00,47.3,12.3,30.06,South,180,0.0,0.0,24,0.00,CLR,,0.00,WeatherDisplay:10.37,2013-03-20 21:00:00,
2013-03-20 16:02:00,78.3,23.3,30.09,SE,135,11.5,11.5,13,0.00,CLR,,0.00,WeatherDisplay:10.37,2013-03-20 21:02:00,
2013-03-20 16:05:00,47.3,12.3,30.06,South,180,0.0,0.0,24,0.00,CLR,,0.00,WeatherDisplay:10.37,2013-03-20 21:05:00,
2013-03-20 16:07:00,78.1,23.2,30.09,ENE,68,5.8,5.8,13,0.00,CLR,,0.00,WeatherDisplay:10.37,2013-03-20 21:07:00,
2013-03-20 16:10:00,47.3,12.3,30.06,South,180,0.0,0.0,24,0.00,CLR,,0.00,WeatherDisplay:10.37,2013-03-20 21:10:00,
2013-03-20 16:12:00,77.4,22.6,30.09,SSE,158,9.2,9.2,13,0.00,CLR,,0.00,WeatherDisplay:10.37,2013-03-20 21:12:00,
2013-03-20 16:15:00,47.3,12.3,30.06,South,178,0.0,0.0,24,0.00,CLR,,0.00,WeatherDisplay:10.37,2013-03-20 21:15:00,
2013-03-20 16:17:00,77.4,22.6,30.09,NE,45,5.8,7.6,13,0.00,CLR,,0.00,WeatherDisplay:10.37,2013-03-20 21:17:00,
2013-03-20 16:20:00,47.3,12.3,30.06,SSE,167,0.0,0.0,24,0.00,CLR,,0.00,WeatherDisplay:10.37,2013-03-20 21:20:00,
2013-03-20 16:22:00,76.6,22.1,30.09,ESE,112,11.5,11.5,13,0.00,CLR,,0.00,WeatherDisplay:10.37,2013-03-20 21:22:00,
2013-03-20 16:25:00,47.3,12.3,30.06,SSE,158,0.0,0.0,24,0.00,CLR,,0.00,WeatherDisplay:10.37,2013-03-20 21:25:00,
2013-03-20 16:27:00,76.8,22.2,30.09,ENE,68,5.8,5.8,13,0.00,CLR,,0.00,WeatherDisplay:10.37,2013-03-20 21:27:00,
2013-03-20 16:30:00,47.3,12.3,30.06,SSE,154,0.0,0.0,24,0.00,CLR,,0.00,WeatherDisplay:10.37,2013-03-20 21:30:00,
2013-03-20 16:32:00,78.3,23.3,30.09,NNE,22,5.8,5.8,13,0.00,CLR,,0.00,WeatherDisplay:10.37,2013-03-20 21:32:00,
2013-03-20 16:35:00,47.3,12.3,30.03,SE,130,0.0,0.0,24,0.00,CLR,,0.00,WeatherDisplay:10.37,2013-03-20 21:35:00,
2013-03-20 16:37:00,77.7,22.9,30.09,ENE,68,12.7,12.7,13,0.00,CLR,,0.00,WeatherDisplay:10.37,2013-03-20 21:37:00,
2013-03-20 16:40:00,47.3,12.3,30.03,ESE,112,0.0,0.0,24,0.00,CLR,,0.00,WeatherDisplay:10.37,2013-03-20 21:40:00,
2013-03-20 16:42:00,76.8,22.2,30.09,ESE,112,10.4,10.4,13,0.00,CLR,,0.00,WeatherDisplay:10.37,2013-03-20 21:42:00,
2013-03-20 16:45:00,47.3,12.3,30.03,ESE,112,0.0,0.0,24,0.00,CLR,,0.00,WeatherDisplay:10.37,2013-03-20 21:45:00,
2013-03-20 16:48:00,76.8,22.2,30.06,East,90,8.1,8.1,13,0.00,CLR,,0.00,WeatherDisplay:10.37,2013-03-20 21:48:00,
2013-03-20 16:50:00,47.3,12.3,30.03,ESE,112,0.0,0.0,24,0.00,CLR,,0.00,WeatherDisplay:10.37,2013-03-20 21:50:00,
2013-03-20 16:53:00,77.7,22.9,30.06,East,90,5.8,5.8,13,0.00,CLR,,0.00,WeatherDisplay:10.37,2013-03-20 21:53:00,
2013-03-20 16:55:00,47.3,12.3,30.03,ESE,112,0.0,0.0,24,0.00,CLR,,0.00,WeatherDisplay:10.37,2013-03-20 21:55:00,
2013-03-20 16:58:00,76.8,22.2,30.06,ESE,112,10.4,10.4,13,0.00,CLR,,0.00,WeatherDisplay:10.37,2013-03-20 21:58:00,
2013-03-20 17:00:00,47.3,12.3,30.03,ESE,112,0.0,0.0,24,0.00,CLR,,0.00,WeatherDisplay:10.37,2013-03-20 22:00:00,
2013-03-20 17:03:00,77.0,22.4,30.09,East,90,10.4,10.4,13,0.00,CLR,,0.00,WeatherDisplay:10.37,2013-03-20 22:03:00,
2013-03-20 17:05:00,47.3,12.3,30.06,East,98,0.0,0.0,24,0.00,CLR,,0.00,WeatherDisplay:10.37,2013-03-20 22:05:00,
2013-03-20 17:08:00,75.9,21.5,30.09,East,90,13.8,13.8,13,0.00,CLR,,0.00,WeatherDisplay:10.37,2013-03-20 22:08:00,
2013-03-20 17:10:00,47.3,12.3,30.06,NE,45,0.0,0.0,24,0.00,CLR,,0.00,WeatherDisplay:10.37,2013-03-20 22:10:00,
2013-03-20 17:13:00,76.3,21.8,30.09,ENE,68,9.2,9.2,13,0.00,CLR,,0.00,WeatherDisplay:10.37,2013-03-20 22:13:00,
2013-03-20 17:15:00,47.3,12.3,30.06,NNE,22,0.0,0.0,24,0.00,CLR,,0.00,WeatherDisplay:10.37,2013-03-20 22:15:00,
2013-03-20 17:18:00,75.9,21.5,30.06,NNE,22,2.3,4.7,13,0.00,CLR,,0.00,WeatherDisplay:10.37,2013-03-20 22:18:00,
2013-03-20 17:20:00,47.3,12.3,30.06,NNE,22,0.0,0.0,24,0.00,CLR,,0.00,WeatherDisplay:10.37,2013-03-20 22:20:00,
2013-03-20 17:23:00,76.5,21.9,30.06,East,90,5.8,5.8,13,0.00,CLR,,0.00,WeatherDisplay:10.37,2013-03-20 22:23:00,
2013-03-20 17:25:00,47.3,12.3,30.06,NNE,22,0.0,0.0,24,0.00,CLR,,0.00,WeatherDisplay:10.37,2013-03-20 22:25:00,
2013-03-20 17:28:00,76.8,22.2,30.06,NE,45,6.9,6.9,13,0.00,CLR,,0.00,WeatherDisplay:10.37,2013-03-20 22:28:00,
2013-03-20 17:30:00,47.3,12.3,30.06,NNE,22,0.0,0.0,24,0.00,CLR,,0.00,WeatherDisplay:10.37,2013-03-20 22:30:00,
2013-03-20 17:33:00,76.1,21.6,30.06,ENE,68,6.9,7.8,13,0.00,CLR,,0.00,WeatherDisplay:10.37,2013-03-20 22:33:00,
2013-03-20 17:35:00,47.3,12.3,30.06,NNE,22,0.0,0.0,24,0.00,CLR,,0.00,WeatherDisplay:10.37,2013-03-20 22:35:00,
2013-03-20 17:38:00,77.2,22.5,30.06,WNW,292,3.5,3.5,13,0.00,CLR,,0.00,WeatherDisplay:10.37,2013-03-20 22:38:00,
2013-03-20 17:40:00,47.3,12.3,30.06,NNE,22,0.0,0.0,24,0.00,CLR,,0.00,WeatherDisplay:10.37,2013-03-20 22:40:00,
2013-03-20 17:43:00,77.9,23.1,30.06,NNE,22,3.5,3.5,13,0.00,CLR,,0.00,WeatherDisplay:10.37,2013-03-20 22:43:00,
2013-03-20 17:45:00,47.3,12.3,30.06,NNE,22,0.0,0.0,24,0.00,CLR,,0.00,WeatherDisplay:10.37,2013-03-20 22:45:00,
2013-03-20 17:48:00,76.3,21.8,30.06,North,0,10.4,10.4,13,0.00,CLR,,0.00,WeatherDisplay:10.37,2013-03-20 22:48:00,
2013-03-20 17:50:00,47.3,12.3,30.06,NNE,22,0.0,0.0,24,0.00,CLR,,0.00,WeatherDisplay:10.37,2013-03-20 22:50:00,
2013-03-20 17:53:00,75.7,21.4,30.06,East,90,10.4,10.4,13,0.00,CLR,,0.00,WeatherDisplay:10.37,2013-03-20 22:53:00,
2013-03-20 17:55:00,47.3,12.3,30.06,NE,56,0.0,0.0,24,0.00,CLR,,0.00,WeatherDisplay:10.37,2013-03-20 22:55:00,
2013-03-20 17:58:00,75.4,21.1,30.06,East,90,8.1,8.1,13,0.00,CLR,,0.00,WeatherDisplay:10.37,2013-03-20 22:58:00,
2013-03-20 18:00:00,47.3,12.3,30.06,ESE,106,0.0,0.0,24,0.00,CLR,,0.00,WeatherDisplay:10.37,2013-03-20 23:00:00,
2013-03-20 18:03:00,75.4,21.1,30.06,ESE,112,6.0,6.2,13,0.00,CLR,,0.00,WeatherDisplay:10.37,2013-03-20 23:03:00,
2013-03-20 18:05:00,47.3,12.3,30.06,East,100,2.0,2.0,24,0.00,CLR,,0.00,WeatherDisplay:10.37,2013-03-20 23:05:00,
2013-03-20 18:08:00,75.6,21.2,30.06,North,0,2.9,3.6,13,0.00,CLR,,0.00,WeatherDisplay:10.37,2013-03-20 23:08:00,
2013-03-20 18:10:00,47.3,12.3,30.06,East,99,2.0,2.0,24,0.00,CLR,,0.00,WeatherDisplay:10.37,2013-03-20 23:10:00,
2013-03-20 18:13:00,75.0,20.8,30.06,NNE,22,5.8,7.8,13,0.00,CLR,,0.00,WeatherDisplay:10.37,2013-03-20 23:13:00,
2013-03-20 18:15:00,48.7,16.2,30.06,ESE,109,2.0,2.0,27,0.00,CLR,,0.00,WeatherDisplay:10.37,2013-03-20 23:15:00,
2013-03-20 18:18:00,75.0,20.8,30.06,ENE,68,5.8,5.8,13,0.00,CLR,,0.00,WeatherDisplay:10.37,2013-03-20 23:18:00,
2013-03-20 18:20:00,48.7,16.2,30.03,ESE,112,2.0,2.0,27,0.00,CLR,,0.00,WeatherDisplay:10.37,2013-03-20 23:20:00,
2013-03-20 18:23:00,74.7,20.5,30.06,East,90,5.8,5.8,13,0.00,CLR,,0.00,WeatherDisplay:10.37,2013-03-20 23:23:00,
2013-03-20 18:25:00,48.6,16.0,30.03,ESE,112,2.0,2.0,27,0.00,CLR,,0.00,WeatherDisplay:10.37,2013-03-20 23:25:00,
2013-03-20 18:28:00,74.5,20.4,30.06,East,90,5.8,5.8,13,0.00,CLR,,0.00,WeatherDisplay:10.37,2013-03-20 23:28:00,
2013-03-20 18:30:00,48.6,16.0,30.03,ESE,112,2.0,2.0,27,0.00,CLR,,0.00,WeatherDisplay:10.37,2013-03-20 23:30:00,
2013-03-20 18:33:00,74.5,20.4,30.06,ENE,68,4.6,4.6,13,0.00,CLR,,0.00,WeatherDisplay:10.37,2013-03-20 23:33:00,
2013-03-20 18:35:00,48.7,15.3,30.03,ESE,112,2.0,2.0,26,0.00,CLR,,0.00,WeatherDisplay:10.37,2013-03-20 23:35:00,
2013-03-20 18:38:00,73.2,21.1,30.06,NE,45,5.8,5.8,14,0.00,CLR,,0.00,WeatherDisplay:10.37,2013-03-20 23:38:00,
2013-03-20 18:40:00,48.7,15.3,30.03,ESE,112,2.0,2.0,26,0.00,CLR,,0.00,WeatherDisplay:10.37,2013-03-20 23:40:00,
2013-03-20 18:43:00,73.0,21.0,30.06,NE,45,3.5,3.5,14,0.00,CLR,,0.00,WeatherDisplay:10.37,2013-03-20 23:43:00,
2013-03-20 18:45:00,48.7,15.3,30.03,ESE,112,2.0,2.0,26,0.00,CLR,,0.00,WeatherDisplay:10.37,2013-03-20 23:45:00,
2013-03-20 18:48:00,73.2,21.1,30.06,ESE,112,4.6,4.6,14,0.00,CLR,,0.00,WeatherDisplay:10.37,2013-03-20 23:48:00,
2013-03-20 18:50:00,48.7,15.3,30.03,ESE,113,0.0,2.0,26,0.00,CLR,,0.00,WeatherDisplay:10.37,2013-03-20 23:50:00,
2013-03-20 18:53:00,72.9,20.8,30.06,NE,45,4.6,4.6,14,0.00,CLR,,0.00,WeatherDisplay:10.37,2013-03-20 23:53:00,
2013-03-20 18:55:00,48.7,15.3,30.03,ESE,121,0.0,0.0,26,0.00,CLR,,0.00,WeatherDisplay:10.37,2013-03-20 23:55:00,
2013-03-20 18:58:00,72.7,20.7,30.06,ENE,68,0.0,0.0,14,0.00,CLR,,0.00,WeatherDisplay:10.37,2013-03-20 23:58:00,
2013-03-20 19:00:00,48.7,15.3,30.03,SE,135,0.0,0.0,26,0.00,CLR,,0.00,WeatherDisplay:10.37,2013-03-21 00:00:00,
2013-03-20 19:03:00,71.4,19.7,30.06,ENE,68,0.0,0.0,14,0.00,CLR,,0.00,WeatherDisplay:10.37,2013-03-21 00:03:00,
2013-03-20 19:05:00,48.7,15.3,30.03,SE,135,0.0,0.0,26,0.00,CLR,,0.00,WeatherDisplay:10.37,2013-03-21 00:05:00,
2013-03-20 19:08:00,69.8,18.4,30.06,East,90,0.0,0.0,14,0.00,CLR,,0.00,WeatherDisplay:10.37,2013-03-21 00:08:00,
2013-03-20 19:10:00,48.7,15.3,30.03,SE,135,1.0,0.0,26,0.00,CLR,,0.00,WeatherDisplay:10.37,2013-03-21 00:10:00,
2013-03-20 19:13:00,68.9,19.3,30.06,East,90,0.0,0.0,15,0.00,CLR,,0.00,WeatherDisplay:10.37,2013-03-21 00:13:00,
2013-03-20 19:15:00,48.7,15.3,30.03,SE,135,1.0,0.0,26,0.00,CLR,,0.00,WeatherDisplay:10.37,2013-03-21 00:15:00,
2013-03-20 19:18:00,67.6,18.3,30.06,East,90,0.0,0.0,15,0.00,CLR,,0.00,WeatherDisplay:10.37,2013-03-21 00:18:00,
2013-03-20 19:20:00,48.7,15.3,30.03,SE,135,1.0,0.0,26,0.00,CLR,,0.00,WeatherDisplay:10.37,2013-03-21 00:20:00,
2013-03-20 19:23:00,65.8,16.8,30.06,NE,45,0.0,0.0,15,0.00,CLR,,0.00,WeatherDisplay:10.37,2013-03-21 00:23:00,
2013-03-20 19:25:00,48.7,15.3,30.03,SE,135,1.0,0.0,26,0.00,CLR,,0.00,WeatherDisplay:10.37,2013-03-21 00:25:00,
2013-03-20 19:28:00,64.6,15.8,30.06,NE,45,0.0,0.0,15,0.00,CLR,,0.00,WeatherDisplay:10.37,2013-03-21 00:28:00,
2013-03-20 19:30:00,48.7,15.3,30.03,SE,135,1.0,0.0,26,0.00,CLR,,0.00,WeatherDisplay:10.37,2013-03-21 00:30:00,
2013-03-20 19:33:00,63.1,16.2,30.06,East,90,0.0,0.0,16,0.00,CLR,,0.00,WeatherDisplay:10.37,2013-03-21 00:33:00,
2013-03-20 19:35:00,48.7,15.3,30.03,SE,135,1.0,0.0,26,0.00,CLR,,0.00,WeatherDisplay:10.37,2013-03-21 00:35:00,
2013-03-20 19:38:00,62.1,15.3,30.06,East,90,0.0,0.0,16,0.00,CLR,,0.00,WeatherDisplay:10.37,2013-03-21 00:38:00,
2013-03-20 19:40:00,48.7,15.3,30.03,SE,135,1.0,0.0,26,0.00,CLR,,0.00,WeatherDisplay:10.37,2013-03-21 00:40:00,
2013-03-20 19:43:00,60.8,14.3,30.06,East,90,0.0,0.0,16,0.00,CLR,,0.00,WeatherDisplay:10.37,2013-03-21 00:43:00,
2013-03-20 19:45:00,48.7,13.5,30.03,SE,135,3.0,3.0,24,0.00,CLR,,0.00,WeatherDisplay:10.37,2013-03-21 00:45:00,
2013-03-20 19:48:00,60.1,15.1,30.06,East,90,0.0,0.0,17,0.00,CLR,,0.00,WeatherDisplay:10.37,2013-03-21 00:48:00,
2013-03-20 19:53:00,59.2,14.3,30.06,East,90,0.0,0.0,17,0.00,CLR,,0.00,WeatherDisplay:10.37,2013-03-21 00:53:00,
2013-03-20 19:58:00,58.1,13.4,30.06,East,90,0.0,0.0,17,0.00,CLR,,0.00,WeatherDisplay:10.37,2013-03-21 00:58:00,
2013-03-20 20:03:00,57.7,13.2,30.06,NW,315,0.0,0.0,17,0.00,CLR,,0.00,WeatherDisplay:10.37,2013-03-21 01:03:00,
2013-03-20 20:09:00,57.6,13.0,30.06,NW,315,1.2,0.0,17,0.00,CLR,,0.00,WeatherDisplay:10.37,2013-03-21 01:09:00,
2013-03-20 20:14:00,57.4,12.9,30.06,NW,315,0.0,0.0,17,0.00,CLR,,0.00,WeatherDisplay:10.37,2013-03-21 01:14:00,
2013-03-20 20:19:00,56.7,12.3,30.06,NW,315,0.0,0.0,17,0.00,CLR,,0.00,WeatherDisplay:10.37,2013-03-21 01:19:00,
2013-03-20 20:24:00,56.3,12.0,30.06,NNW,338,1.2,1.2,17,0.00,CLR,,0.00,WeatherDisplay:10.37,2013-03-21 01:24:00,
2013-03-20 20:29:00,55.4,11.2,30.06,WNW,292,0.0,0.0,17,0.00,CLR,,0.00,WeatherDisplay:10.37,2013-03-21 01:29:00,
2013-03-20 20:34:00,54.7,11.9,30.06,WNW,292,0.0,0.0,18,0.00,CLR,,0.00,WeatherDisplay:10.37,2013-03-21 01:34:00,
2013-03-20 20:39:00,54.1,11.5,30.06,WNW,292,0.0,0.0,18,0.00,CLR,,0.00,WeatherDisplay:10.37,2013-03-21 01:39:00,
2013-03-20 20:44:00,53.6,11.0,30.06,WNW,292,0.0,0.0,18,0.00,CLR,,0.00,WeatherDisplay:10.37,2013-03-21 01:44:00,
2013-03-20 20:49:00,53.2,10.8,30.06,WNW,292,0.0,0.0,18,0.00,CLR,,0.00,WeatherDisplay:10.37,2013-03-21 01:49:00,
2013-03-20 20:54:00,53.1,10.6,30.06,WNW,292,0.0,0.0,18,0.00,CLR,,0.00,WeatherDisplay:10.37,2013-03-21 01:54:00,
2013-03-20 20:59:00,52.7,10.3,30.06,WNW,292,0.0,0.0,18,0.00,CLR,,0.00,WeatherDisplay:10.37,2013-03-21 01:59:00,
2013-03-20 21:04:00,52.3,10.0,30.06,WNW,292,0.0,0.0,18,0.00,CLR,,0.00,WeatherDisplay:10.37,2013-03-21 02:04:00,
2013-03-20 21:09:00,52.3,10.0,30.06,WNW,292,0.0,0.0,18,0.00,CLR,,0.00,WeatherDisplay:10.37,2013-03-21 02:09:00,
2013-03-20 21:14:00,52.2,9.9,30.06,West,270,0.0,0.0,18,0.00,CLR,,0.00,WeatherDisplay:10.37,2013-03-21 02:14:00,
2013-03-20 21:19:00,52.2,9.9,30.06,WSW,248,0.0,0.0,18,0.00,CLR,,0.00,WeatherDisplay:10.37,2013-03-21 02:19:00,
2013-03-20 21:24:00,52.2,9.9,30.06,NNW,338,0.0,0.0,18,0.00,CLR,,0.00,WeatherDisplay:10.37,2013-03-21 02:24:00,
2013-03-20 21:29:00,52.9,10.5,30.06,NE,45,4.6,4.6,18,0.00,CLR,,0.00,WeatherDisplay:10.37,2013-03-21 02:29:00,
2013-03-20 21:34:00,53.2,10.8,30.09,WNW,292,1.2,0.0,18,0.00,CLR,,0.00,WeatherDisplay:10.37,2013-03-21 02:34:00,
2013-03-20 21:39:00,52.9,10.5,30.09,NNE,22,2.3,2.3,18,0.00,CLR,,0.00,WeatherDisplay:10.37,2013-03-21 02:39:00,
2013-03-20 21:44:00,53.1,10.6,30.09,NNE,22,4.6,4.6,18,0.00,CLR,,0.00,WeatherDisplay:10.37,2013-03-21 02:44:00,
2013-03-20 21:49:00,53.4,10.9,30.06,NNE,22,4.6,4.6,18,0.00,CLR,,0.00,WeatherDisplay:10.37,2013-03-21 02:49:00,
2013-03-20 21:54:00,52.9,10.5,30.06,NNE,22,4.6,4.6,18,0.00,CLR,,0.00,WeatherDisplay:10.37,2013-03-21 02:54:00,
2013-03-20 21:59:00,52.9,10.5,30.06,NNE,22,4.6,4.6,18,0.00,CLR,,0.00,WeatherDisplay:10.37,2013-03-21 02:59:00,
2013-03-20 22:04:00,52.9,10.5,30.06,North,0,0.0,0.0,18,0.00,CLR,,0.00,WeatherDisplay:10.37,2013-03-21 03:04:00,
2013-03-20 22:09:00,52.9,10.5,30.06,NNW,338,0.0,0.0,18,0.00,CLR,,0.00,WeatherDisplay:10.37,2013-03-21 03:09:00,
2013-03-20 22:14:00,52.9,10.5,30.06,NW,315,0.0,0.0,18,0.00,CLR,,0.00,WeatherDisplay:10.37,2013-03-21 03:14:00,
2013-03-20 22:19:00,52.9,10.5,30.06,NW,315,0.0,0.0,18,0.00,CLR,,0.00,WeatherDisplay:10.37,2013-03-21 03:19:00,
2013-03-20 22:24:00,50.9,10.0,30.06,NW,315,0.0,0.0,19,0.00,CLR,,0.00,WeatherDisplay:10.37,2013-03-21 03:24:00,
2013-03-20 22:29:00,50.9,10.0,30.06,NW,315,0.0,0.0,19,0.00,CLR,,0.00,WeatherDisplay:10.37,2013-03-21 03:29:00,
2013-03-20 22:34:00,50.9,10.0,30.09,NW,315,0.0,0.0,19,0.00,CLR,,0.00,WeatherDisplay:10.37,2013-03-21 03:34:00,
2013-03-20 22:39:00,50.9,10.0,30.09,NW,315,0.0,0.0,19,0.00,CLR,,0.00,WeatherDisplay:10.37,2013-03-21 03:39:00,
2013-03-20 22:44:00,50.9,10.0,30.09,NW,315,0.0,0.0,19,0.00,CLR,,0.00,WeatherDisplay:10.37,2013-03-21 03:44:00,
2013-03-20 22:49:00,50.9,10.0,30.09,NW,315,0.0,0.0,19,0.00,CLR,,0.00,WeatherDisplay:10.37,2013-03-21 03:49:00,
2013-03-20 22:54:00,50.9,10.0,30.09,NW,315,0.0,0.0,19,0.00,CLR,,0.00,WeatherDisplay:10.37,2013-03-21 03:54:00,
2013-03-20 22:59:00,50.9,10.0,30.09,NW,315,0.0,0.0,19,0.00,CLR,,0.00,WeatherDisplay:10.37,2013-03-21 03:59:00,
2013-03-20 23:00:00,50.9,10.0,30.09,NW,315,0.0,0.0,19,0.00,CLR,,0.00,WeatherDisplay:10.37,2013-03-21 04:00:00,
2013-03-20 23:05:00,50.9,10.0,30.09,NW,315,0.0,0.0,19,0.00,CLR,,0.00,WeatherDisplay:10.37,2013-03-21 04:05:00,
2013-03-20 23:10:00,50.9,10.0,30.09,NW,315,0.0,0.0,19,0.00,CLR,,0.00,WeatherDisplay:10.37,2013-03-21 04:10:00,
2013-03-20 23:15:00,50.9,10.0,30.09,NW,315,0.0,0.0,19,0.00,CLR,,0.00,WeatherDisplay:10.37,2013-03-21 04:15:00,
2013-03-20 23:20:00,50.9,10.0,30.09,NW,315,0.0,0.0,19,0.00,CLR,,0.00,WeatherDisplay:10.37,2013-03-21 04:20:00,
2013-03-20 23:25:00,47.8,7.5,30.09,NW,315,0.0,0.0,19,0.00,CLR,,0.00,WeatherDisplay:10.37,2013-03-21 04:25:00,
2013-03-20 23:30:00,47.8,7.5,30.09,NW,315,0.0,0.0,19,0.00,CLR,,0.00,WeatherDisplay:10.37,2013-03-21 04:30:00,
2013-03-20 23:35:00,47.8,7.5,30.09,NW,315,0.0,0.0,19,0.00,CLR,,0.00,WeatherDisplay:10.37,2013-03-21 04:35:00,
2013-03-20 23:40:00,48.4,7.9,30.09,NW,315,0.0,0.0,19,0.00,CLR,,0.00,WeatherDisplay:10.37,2013-03-21 04:40:00,
2013-03-20 23:45:00,48.4,7.9,30.09,NW,315,0.0,0.0,19,0.00,CLR,,0.00,WeatherDisplay:10.37,2013-03-21 04:45:00,
2013-03-20 23:50:00,48.4,7.9,30.12,East,90,0.0,0.0,19,0.00,CLR,,0.00,WeatherDisplay:10.37,2013-03-21 04:50:00,
2013-03-20 23:55:00,48.2,7.8,30.12,East,90,0.0,0.0,19,0.00,CLR,,0.00,WeatherDisplay:10.37,2013-03-21 04:55:00,